Aviation Digital Data Service (ADDS)

Output produced by METARs form (0341 UTC 24 November 2014)
found at http://aviationweather.gov/adds/metars/
 
KDAG 240250Z AUTO 31003KT 10SM CLR 10/M13 A3023 RMK AO2 SLP231 T01001133 53003
KDAG 232320Z 2400/2424 04009KT P6SM SKC 
     FM240100 VRB06KT P6SM FEW250 
     FM240400 27007KT P6SM FEW250 
     FM241800 04007KT P6SM SKC
       
KEDW 240258Z AUTO 00000KT 10SM CLR 08/M14 A3022 RMK AO2 SLP239 T00751139 50006
KVCV 240335Z AUTO 00000KT 10SM CLR 08/M14 A3025 RMK AO2
KONT 240253Z 31006KT 10SM BKN220 17/M16 A3012 RMK AO2 SLP192 T01721156 51015
KONT 232330Z 2400/2506 05015G30KT P6SM FEW250 
     FM240200 05007KT P6SM FEW250 
     FM241800 05015G25KT P6SM FEW250 
     FM250300 05007KT P6SM SKC
       
KSNA 240253Z 00000KT 10SM CLR 21/M12 A3010 RMK AO2 SLP192 T02061117 53009 $
KSNA 240000Z 2400/2424 36006KT P6SM FEW250 WS015/04025KT 
     FM240300 VRB03KT P6SM FEW250 
     FM241700 06010G20KT P6SM SKC
       
KSAN 240251Z 00000KT 10SM BKN250 19/07 A3011 RMK AO2 SLP196 T01940067 51017
KSAN 240326Z 2403/2506 VRB03KT P6SM FEW250 
     FM242000 30009KT P6SM FEW250 
     FM250300 VRB03KT P6SM SKC WS020/08025KT
       
KNID 240256Z AUTO 00000KT 10SM CLR 11/M12 A3022 RMK AO2 SLP240 T01111122 53005 $
KNXP 240256Z AUTO 28008KT 10SM CLR 11/M12 A3028 RMK AO2 SLP236 T01111117 50003 $
TAF KNXP 2403/2503 30006KT 9999 FEW150 QNH3025INS 
     FM241400 34010KT 9999 FEW150 QNH3034INS 
     TEMPO 2415/2421 35015G23KT AUTOMATED SENSOR METWATCH 2403 TIL 2416 T06/2414Z T20/2422Z
       
KPSP 240253Z 26004KT 10SM CLR 18/M09 A3017 RMK AO2 SLP217 T01781094 50006
KPSP 232330Z 2400/2424 36009KT P6SM FEW250 
     FM242100 06009KT P6SM FEW250
       
KLAX 240253Z 01007KT 10SM BKN250 21/M13 A3010 RMK AO2 SLP190 T02111133 51014 $
KLAX 240024Z 2400/2506 01010G18KT P6SM SCT250 
     FM240200 32007KT P6SM SCT250 
     FM240400 VRB03KT P6SM SCT250 
     FM241200 06006KT P6SM SCT250 
     FM242100 28010KT P6SM SKC 
     FM250300 VRB03KT P6SM SKC
       
KCNO 240253Z 09008KT 10SM CLR 18/M15 A3012 RMK AO2 SLP199 T01831150 51013
KSMO 240251Z VRB06KT 10SM CLR 22/M16 A3010 RMK AO2 SLP191 T02171156 51014 $
KLGB 240253Z 14004KT 10SM CLR 18/08 A3010 RMK AO2 SLP192 T01780083 53012
KLGB 232328Z 2400/2424 29008KT P6SM SCT250 
     FM240300 VRB03KT P6SM SCT250 
     FM241400 35004KT P6SM SKC 
     FM241800 03005KT P6SM SKC 
     FM242200 32008KT P6SM SKC
       
KVNY 240251Z 33008KT 10SM CLR 19/M14 A3014 RMK AO2 SLP201 T01941139 51013
KVNY 232328Z 2400/2424 03018G27KT P6SM SCT250 
     FM240200 36010G15KT P6SM SCT250 
     FM240900 35006KT P6SM SCT250 
     FM241500 36012KT P6SM SKC 
     FM241800 35015G20KT P6SM SKC 
     FM242300 01011KT P6SM SKC
       
KBUR 240253Z 32006KT 10SM CLR 19/M16 A3012 RMK AO2 SLP189 T01941161 53014
KBUR 232328Z 2400/2424 35018G26KT P6SM SCT250 
     FM240200 35008KT P6SM SCT250 
     FM241400 VRB03KT P6SM SCT250 
     FM241800 02006KT P6SM SKC 
     FM242200 35010KT P6SM SKC
       
KBFL 240254Z 00000KT 10SM CLR 13/05 A3028 RMK AO2 SLP253 T01280050 53003
KBFL 232337Z 2400/2424 25005KT P6SM SCT025 SCT150 
     FM240600 35002KT 5SM HZ SCT020 
     FM241000 13003KT 4SM BR BKN020 
     FM241800 17003KT 5SM HZ SCT025 
     FM242100 20005KT P6SM SKC
       
KPMD 240253Z AUTO 00000KT 10SM CLR 09/M12 A3024 RMK AO2 SLP242 T00941122 53005 TSNO
KPMD 232328Z 2400/2424 07011KT P6SM SCT250 
     FM240200 28006KT P6SM SCT250 
     FM240800 VRB03KT P6SM SCT250 
     FM241800 03005KT P6SM SCT250 
     FM242100 04010KT P6SM SKC
       
KOXR 240251Z 00000KT 10SM CLR 16/08 A3013 RMK AO2 SLP204 T01610078 53005
KOXR 232328Z 2400/2424 30010KT P6SM SCT250 
     FM240300 VRB03KT P6SM SCT250 
     FM240600 06008KT P6SM SCT250 
     FM241400 05012KT P6SM SKC 
     FM241800 06008KT P6SM SKC 
     FM242100 29010KT P6SM SKC
       
KWJF 240256Z AUTO 29009KT 10SM CLR 09/M01 A3024 RMK AO2 SLP249 T00891011 53007 TSNO
KWJF 232328Z 2400/2424 07007KT P6SM SCT250 
     FM240200 34007KT P6SM SCT250 
     FM240800 VRB03KT P6SM SCT250 
     FM242000 04010KT P6SM SKC
       
KCMA 240255Z 00000KT 10SM CLR 15/02 A3013 RMK AO2 SLP211 T01500022 53005
KFAT 240253Z 32003KT 8SM BKN150 12/08 A3029 RMK AO2 SLP257 T01170083 55001
KFAT 232337Z 2400/2424 VRB04KT P6SM SCT025 BKN150 
     FM240600 VRB03KT 5SM HZ FEW015 SCT150 
     FM240900 32003KT 3SM BR BKN015 
     FM241800 13002KT 4SM HZ FEW015 SCT250 
     FM242100 09003KT 5SM HZ FEW250
       
KEED 240256Z AUTO 34007KT 10SM CLR 14/M16 A3019 RMK AO2 SLP208 T01441156 53007
KEED 232320Z 2400/2424 01017G24KT P6SM SKC 
     FM240100 33009KT P6SM FEW250 
     FM241600 01012G20KT P6SM SKC
       
KLSV 240258Z AUTO 01004KT 10SM CLR 10/M13 A3021 RMK AO2 SLP227 T01001131 53002
TAF KLSV 2401/2507 VRB06KT 9999 FEW120 QNH3017INS 
     BECMG 2416/2417 02012KT 9999 SKC QNH3020INS 
     BECMG 2501/2502 VRB06KT 9999 SKC QNH3022INS TX17/2421Z TN03/2413Z
       
KLAS 240256Z 25007KT 10SM SCT180 SCT250 12/M12 A3018 RMK AO2 SLP216 T01221117 53001 $
KLAS 240230Z 2403/2424 25007KT P6SM SCT250 
     FM241200 20005KT P6SM SCT250 
     FM241700 05006KT P6SM FEW250
       
KHII 240335Z AUTO 01008G14KT 10SM CLR 17/M14 A3017 RMK AO2
KIFP 240335Z AUTO 00000KT 10SM CLR 15/M13 A3021 RMK AO2 PWINO